Time;durP1;ratioP1;P1;durP2;ratioP2;P2;SDS_P1;SDS_P2;PMS_P1;PMS_P2;Temp;Humidity;BMP_temperature;BMP_pressure;BME280_temperature;BME280_humidity;BME280_pressure;Samples;Min_cycle;Max_cycle;Signal;HPM_P1;HPM_P2
2024/01/07 00:00:45;;;;;;;1.37;1.27;;;22.20;59.10;;;;;;6248162;23;20459;-91
2024/01/07 00:03:13;;;;;;;1.40;1.20;;;22.20;59.10;;;;;;6249426;23;20441;-91
2024/01/07 00:05:41;;;;;;;2.97;1.40;;;22.20;59.10;;;;;;6249032;23;20745;-91
2024/01/07 00:08:08;;;;;;;1.50;1.23;;;22.20;59.10;;;;;;6249537;23;20433;-91
2024/01/07 00:10:35;;;;;;;1.40;1.10;;;22.20;59.20;;;;;;6247817;23;20424;-91
2024/01/07 00:13:02;;;;;;;1.60;1.50;;;22.20;59.10;;;;;;6248282;23;20446;-90
2024/01/07 00:15:28;;;;;;;1.60;1.40;;;22.20;59.10;;;;;;6248370;23;20416;-91
2024/01/07 00:17:58;;;;;;;1.40;1.20;;;22.10;59.10;;;;;;6248136;23;20433;-91
2024/01/07 00:20:25;;;;;;;1.50;1.40;;;22.10;59.10;;;;;;6249060;23;20429;-91
2024/01/07 00:22:53;;;;;;;1.30;1.20;;;22.10;59.10;;;;;;6248271;23;20757;-91
2024/01/07 00:25:20;;;;;;;1.30;1.20;;;22.10;59.10;;;;;;6248032;23;20447;-91
2024/01/07 00:27:47;;;;;;;1.60;1.50;;;22.10;59.10;;;;;;6248206;23;20736;-91
2024/01/07 00:30:14;;;;;;;2.87;1.70;;;22.10;59.60;;;;;;6248061;23;20416;-90
2024/01/07 00:32:41;;;;;;;1.50;1.30;;;22.10;59.10;;;;;;6248294;23;20425;-91
2024/01/07 00:35:08;;;;;;;1.50;1.40;;;22.10;59.10;;;;;;6247420;23;20804;-91
2024/01/07 00:37:35;;;;;;;1.50;1.40;;;22.10;59.10;;;;;;6247560;23;20488;-90
2024/01/07 00:40:04;;;;;;;1.80;1.40;;;22.10;59.20;;;;;;6246968;23;20536;-91
2024/01/07 00:42:32;;;;;;;4.50;1.50;;;22.10;59.10;;;;;;6247255;23;20473;-91
2024/01/07 00:44:59;;;;;;;1.63;1.33;;;22.10;59.10;;;;;;6250411;23;20408;-91
2024/01/07 00:47:25;;;;;;;1.50;1.40;;;22.10;59.20;;;;;;6249980;23;20401;-90
2024/01/07 00:49:52;;;;;;;2.40;1.10;;;22.10;59.10;;;;;;6248258;23;20405;-91
2024/01/07 00:52:20;;;;;;;2.03;1.30;;;22.10;59.20;;;;;;6246484;23;20401;-91
2024/01/07 00:54:48;;;;;;;1.60;1.17;;;22.10;59.20;;;;;;6246671;23;20454;-91
2024/01/07 00:57:16;;;;;;;1.80;1.40;;;22.10;59.20;;;;;;6247267;23;20429;-91
2024/01/07 00:59:43;;;;;;;2.17;1.43;;;22.10;59.20;;;;;;6247291;23;20532;-91
2024/01/07 01:02:15;;;;;;;1.57;1.47;;;22.10;59.20;;;;;;6250058;23;20388;-91
2024/01/07 01:04:42;;;;;;;1.50;1.30;;;22.10;59.10;;;;;;6250479;23;20392;-91
2024/01/07 01:07:08;;;;;;;1.50;1.20;;;22.10;59.10;;;;;;6250219;23;20429;-91
2024/01/07 01:09:35;;;;;;;1.70;1.60;;;22.10;59.10;;;;;;6248713;23;20404;-91
2024/01/07 01:12:02;;;;;;;1.40;1.30;;;22.10;59.10;;;;;;6248663;23;20480;-90
2024/01/07 01:14:30;;;;;;;1.70;1.50;;;22.10;59.10;;;;;;6249369;23;20782;-91
2024/01/07 01:16:58;;;;;;;1.70;1.50;;;22.10;59.10;;;;;;6248724;23;20432;-91
2024/01/07 01:19:25;;;;;;;1.60;1.50;;;22.10;59.10;;;;;;6247898;23;20811;-90
2024/01/07 01:21:52;;;;;;;1.70;1.60;;;22.10;59.00;;;;;;6249216;23;20417;-91
2024/01/07 01:24:19;;;;;;;1.30;1.10;;;22.10;59.00;;;;;;6249349;23;20485;-91
2024/01/07 01:26:46;;;;;;;1.50;1.40;;;22.10;59.10;;;;;;6249539;23;20427;-91
2024/01/07 01:29:13;;;;;;;2.00;1.43;;;22.10;59.00;;;;;;6247695;23;20428;-91
2024/01/07 01:34:42;;;;;;;1.90;1.50;;;22.10;59.00;;;;;;6221360;22;20443;-90
2024/01/07 01:37:09;;;;;;;1.50;1.40;;;22.10;59.00;;;;;;6253927;23;20428;-90
2024/01/07 01:39:36;;;;;;;1.60;1.20;;;22.10;59.00;;;;;;6252723;23;20524;-91
2024/01/07 01:42:03;;;;;;;1.80;1.70;;;22.10;59.00;;;;;;6250243;23;20405;-91
2024/01/07 01:44:31;;;;;;;1.50;1.40;;;22.10;58.80;;;;;;6250636;23;20488;-90
2024/01/07 01:47:00;;;;;;;1.70;1.60;;;22.10;59.10;;;;;;6250608;23;20507;-91
2024/01/07 01:49:27;;;;;;;1.60;1.47;;;22.10;58.90;;;;;;6250027;23;20432;-90
2024/01/07 01:51:55;;;;;;;1.60;1.30;;;22.10;59.00;;;;;;6249647;23;20483;-91
2024/01/07 01:54:23;;;;;;;1.63;1.53;;;22.10;59.00;;;;;;6249143;23;20408;-90
2024/01/07 01:56:50;;;;;;;1.63;1.50;;;22.10;59.00;;;;;;6251044;23;20488;-91
2024/01/07 01:59:18;;;;;;;1.40;1.30;;;22.10;59.00;;;;;;6250536;23;20436;-90
2024/01/07 02:01:45;;;;;;;1.93;1.70;;;22.10;58.90;;;;;;6251680;23;20401;-91
2024/01/07 02:04:12;;;;;;;1.80;1.70;;;22.10;59.00;;;;;;6249978;23;20401;-91
2024/01/07 02:06:39;;;;;;;1.47;1.37;;;22.10;58.90;;;;;;6250022;23;20488;-91
2024/01/07 02:09:08;;;;;;;1.50;1.40;;;22.10;58.90;;;;;;6249650;23;20413;-91
2024/01/07 02:11:35;;;;;;;1.80;1.70;;;22.10;58.90;;;;;;6249277;23;20473;-91
2024/01/07 02:14:02;;;;;;;1.90;1.53;;;22.10;58.80;;;;;;6249403;23;20429;-91
2024/01/07 02:16:29;;;;;;;1.50;1.37;;;22.10;58.80;;;;;;6249434;23;20401;-91
2024/01/07 02:18:58;;;;;;;1.60;1.33;;;22.10;58.90;;;;;;6251476;23;20836;-90
2024/01/07 02:21:25;;;;;;;2.30;1.63;;;22.10;58.90;;;;;;6249641;23;20401;-91
2024/01/07 02:23:52;;;;;;;1.50;1.40;;;22.10;58.90;;;;;;6249957;23;20783;-90
2024/01/07 02:26:20;;;;;;;1.50;1.40;;;22.10;58.90;;;;;;6249726;23;20416;-91
2024/01/07 02:28:46;;;;;;;1.87;1.63;;;22.10;58.90;;;;;;6249309;23;20397;-90
2024/01/07 02:31:13;;;;;;;1.70;1.50;;;22.10;58.80;;;;;;6252726;23;20998;-92
2024/01/07 02:33:40;;;;;;;2.30;1.40;;;22.10;58.90;;;;;;6249822;23;20508;-91
2024/01/07 02:36:08;;;;;;;1.57;1.37;;;22.10;58.80;;;;;;6248777;23;20477;-91
2024/01/07 02:38:35;;;;;;;1.63;1.53;;;22.10;58.80;;;;;;6249297;23;20415;-90
2024/01/07 02:41:01;;;;;;;1.80;1.70;;;22.10;58.80;;;;;;6250864;23;20466;-91
2024/01/07 02:43:30;;;;;;;1.30;1.20;;;22.10;58.90;;;;;;6249703;23;20441;-91
2024/01/07 02:45:58;;;;;;;1.77;1.53;;;22.10;58.80;;;;;;6248462;23;20488;-90
2024/01/07 02:48:25;;;;;;;2.17;1.97;;;22.10;58.80;;;;;;6248791;23;20412;-91
2024/01/07 02:50:51;;;;;;;1.83;1.40;;;22.10;58.80;;;;;;6249033;23;20401;-91
2024/01/07 02:53:18;;;;;;;1.63;1.43;;;22.10;58.80;;;;;;6249773;23;20449;-90
2024/01/07 02:55:45;;;;;;;1.80;1.70;;;22.10;58.70;;;;;;6251141;23;20432;-91
2024/01/07 02:58:12;;;;;;;2.17;1.50;;;22.10;58.80;;;;;;6247321;23;20425;-90
2024/01/07 03:00:40;;;;;;;1.50;1.30;;;22.10;58.70;;;;;;6249176;23;20440;-91
2024/01/07 03:03:07;;;;;;;1.80;1.57;;;22.10;58.80;;;;;;6247057;23;20425;-91
2024/01/07 03:05:34;;;;;;;1.50;1.40;;;22.10;58.70;;;;;;6247542;23;20405;-90
2024/01/07 03:08:01;;;;;;;1.80;1.70;;;22.10;58.80;;;;;;6247607;23;20460;-91
2024/01/07 03:10:28;;;;;;;2.23;1.40;;;22.10;58.70;;;;;;6245543;23;20404;-91
2024/01/07 03:12:54;;;;;;;1.50;1.40;;;22.10;58.70;;;;;;6245594;23;20397;-91
2024/01/07 03:15:21;;;;;;;1.57;1.47;;;22.10;58.70;;;;;;6245583;23;20404;-91
2024/01/07 03:17:49;;;;;;;1.40;1.30;;;22.10;58.60;;;;;;6246350;23;20401;-90
2024/01/07 03:20:16;;;;;;;1.90;1.70;;;22.10;58.70;;;;;;6245522;23;20436;-91
2024/01/07 03:22:43;;;;;;;2.00;1.80;;;22.10;58.70;;;;;;6247284;23;20488;-91
2024/01/07 03:25:10;;;;;;;1.70;1.60;;;22.10;58.60;;;;;;6246521;23;20488;-90
2024/01/07 03:27:37;;;;;;;1.60;1.50;;;22.10;58.60;;;;;;6247642;23;20405;-91
2024/01/07 03:30:05;;;;;;;1.70;1.47;;;22.10;58.60;;;;;;6247139;23;20425;-91
2024/01/07 03:32:32;;;;;;;1.43;1.23;;;22.10;58.70;;;;;;6247554;23;20448;-91
2024/01/07 03:35:00;;;;;;;1.67;1.50;;;22.10;58.60;;;;;;6246296;23;20428;-91
2024/01/07 03:37:27;;;;;;;1.90;1.70;;;22.10;58.60;;;;;;6246761;23;20480;-90
2024/01/07 03:39:54;;;;;;;2.10;1.57;;;22.10;58.70;;;;;;6220708;23;20749;-90
2024/01/07 03:42:20;;;;;;;2.00;1.70;;;22.10;58.60;;;;;;6247480;23;20480;-91
2024/01/07 03:44:47;;;;;;;1.73;1.63;;;22.10;59.20;;;;;;6247682;23;20435;-91
2024/01/07 03:47:20;;;;;;;1.90;1.70;;;22.10;58.60;;;;;;6247647;23;20421;-91
2024/01/07 03:49:47;;;;;;;2.17;1.67;;;22.10;58.50;;;;;;6246979;23;20409;-91
2024/01/07 03:52:15;;;;;;;1.40;1.30;;;22.10;58.50;;;;;;6247385;23;20807;-91
2024/01/07 03:54:42;;;;;;;1.63;1.53;;;22.10;58.60;;;;;;6246546;23;20405;-91
2024/01/07 03:57:09;;;;;;;1.70;1.57;;;22.10;58.60;;;;;;6247611;23;20918;-91
2024/01/07 03:59:36;;;;;;;2.27;1.40;;;22.10;58.50;;;;;;6247787;23;20433;-91
2024/01/07 04:02:03;;;;;;;2.00;1.80;;;22.20;58.60;;;;;;6246860;23;20512;-91
2024/01/07 04:04:30;;;;;;;1.77;1.67;;;22.00;58.50;;;;;;6247263;23;20904;-91
2024/01/07 04:06:57;;;;;;;1.50;1.40;;;22.10;58.60;;;;;;6247290;23;20437;-90
2024/01/07 04:09:25;;;;;;;1.67;1.57;;;22.10;58.50;;;;;;6246396;23;20492;-90
2024/01/07 04:11:52;;;;;;;2.07;1.80;;;22.10;58.50;;;;;;6247603;23;20484;-90
2024/01/07 04:14:19;;;;;;;1.73;1.47;;;22.10;58.50;;;;;;6246325;23;20409;-91
2024/01/07 04:16:45;;;;;;;1.50;1.40;;;22.00;58.50;;;;;;6246986;23;20800;-91
2024/01/07 04:19:12;;;;;;;1.30;1.13;;;22.10;59.10;;;;;;6247290;23;20439;-91
2024/01/07 04:21:39;;;;;;;1.63;1.43;;;22.20;58.60;;;;;;6246905;23;20495;-90
2024/01/07 04:24:06;;;;;;;1.63;1.50;;;22.00;58.50;;;;;;6246698;23;20425;-91
2024/01/07 04:26:34;;;;;;;2.20;1.80;;;22.00;58.50;;;;;;6246524;23;20492;-91
2024/01/07 04:29:01;;;;;;;1.80;1.70;;;22.00;58.40;;;;;;6246063;23;20504;-91
2024/01/07 04:31:27;;;;;;;1.77;1.67;;;22.00;58.40;;;;;;6246006;23;20495;-90
2024/01/07 04:33:54;;;;;;;2.13;1.70;;;22.00;58.50;;;;;;6246307;23;20468;-91
2024/01/07 04:36:21;;;;;;;1.77;1.50;;;22.00;58.40;;;;;;6246812;23;20193;-91
2024/01/07 04:38:48;;;;;;;1.60;1.30;;;22.00;58.40;;;;;;6246590;23;20397;-91
2024/01/07 04:41:14;;;;;;;1.50;1.40;;;22.00;58.50;;;;;;6246562;23;20846;-91
2024/01/07 04:43:44;;;;;;;1.70;1.60;;;22.10;58.50;;;;;;6247150;23;20745;-90
2024/01/07 04:46:12;;;;;;;1.97;1.77;;;22.00;58.40;;;;;;6246093;23;20921;-90
2024/01/07 04:48:39;;;;;;;1.90;1.63;;;22.00;58.30;;;;;;6246943;23;20800;-91
2024/01/07 04:51:06;;;;;;;2.00;1.60;;;22.10;58.40;;;;;;6246103;23;20401;-91
2024/01/07 04:53:32;;;;;;;2.30;2.10;;;22.00;58.30;;;;;;6246716;23;20405;-91
2024/01/07 04:55:59;;;;;;;1.77;1.50;;;22.00;58.40;;;;;;6246564;23;20441;-91
2024/01/07 04:58:26;;;;;;;1.83;1.73;;;22.10;58.40;;;;;;6247046;23;20408;-91
2024/01/07 05:00:54;;;;;;;1.93;1.53;;;22.10;58.40;;;;;;6246828;23;20446;-91
2024/01/07 05:03:21;;;;;;;2.20;2.00;;;22.20;58.30;;;;;;6247120;23;20417;-91
2024/01/07 05:05:48;;;;;;;1.60;1.50;;;22.10;58.20;;;;;;6247009;23;20454;-91
2024/01/07 05:08:15;;;;;;;1.57;1.47;;;22.20;58.40;;;;;;6247923;23;20401;-91
2024/01/07 05:10:41;;;;;;;1.70;1.50;;;22.20;58.40;;;;;;6249327;23;20407;-91
2024/01/07 05:13:08;;;;;;;1.53;1.43;;;22.10;58.30;;;;;;6248829;23;20405;-91
2024/01/07 05:15:36;;;;;;;1.67;1.57;;;22.20;58.40;;;;;;6248594;23;20448;-91
2024/01/07 05:18:08;;;;;;;1.63;1.53;;;22.10;58.10;;;;;;6249259;23;20424;-91
2024/01/07 05:20:35;;;;;;;1.60;1.50;;;22.10;58.30;;;;;;6248617;23;20471;-91
2024/01/07 05:23:02;;;;;;;1.70;1.60;;;22.10;58.30;;;;;;6248419;23;20931;-94
2024/01/07 05:25:28;;;;;;;1.60;1.50;;;22.10;58.20;;;;;;6248392;23;20423;-90
2024/01/07 05:27:55;;;;;;;2.03;1.67;;;22.20;58.20;;;;;;6248593;23;20900;-91
2024/01/07 05:30:23;;;;;;;1.53;1.37;;;22.10;58.70;;;;;;6248325;23;20549;-90
2024/01/07 05:32:49;;;;;;;1.87;1.67;;;22.20;58.30;;;;;;6248427;23;20425;-91
2024/01/07 05:35:18;;;;;;;1.70;1.40;;;22.20;58.20;;;;;;6247771;23;20512;-91
2024/01/07 05:37:44;;;;;;;2.07;1.90;;;22.20;58.20;;;;;;6249462;23;20488;-91
2024/01/07 05:40:12;;;;;;;1.87;1.60;;;22.30;58.30;;;;;;6247599;23;20457;-90
2024/01/07 05:42:39;;;;;;;2.17;1.97;;;22.20;58.10;;;;;;6248292;23;20919;-91
2024/01/07 05:45:07;;;;;;;5.43;1.63;;;22.20;58.00;;;;;;6249468;23;20487;-91
2024/01/07 05:47:34;;;;;;;1.90;1.70;;;22.20;58.10;;;;;;6247088;23;20401;-91
2024/01/07 05:50:00;;;;;;;1.90;1.80;;;22.20;58.00;;;;;;6248569;23;20397;-91
2024/01/07 05:52:30;;;;;;;1.87;1.60;;;22.20;58.00;;;;;;6248678;23;20441;-91
2024/01/07 05:54:56;;;;;;;1.73;1.63;;;22.20;58.10;;;;;;6248078;23;20433;-91
2024/01/07 05:57:23;;;;;;;2.80;2.10;;;22.20;58.00;;;;;;6248869;23;20415;-91
2024/01/07 05:59:51;;;;;;;1.90;1.57;;;22.20;58.00;;;;;;6248133;23;20488;-90
2024/01/07 06:02:18;;;;;;;1.60;1.40;;;22.20;58.00;;;;;;6248485;23;20923;-92
2024/01/07 06:04:45;;;;;;;2.43;2.20;;;22.20;57.90;;;;;;6248314;23;20815;-91
2024/01/07 06:07:12;;;;;;;1.60;1.50;;;22.20;58.10;;;;;;6248795;23;20487;-92
2024/01/07 06:09:40;;;;;;;2.20;2.00;;;22.30;58.00;;;;;;6248492;23;20492;-91
2024/01/07 06:12:07;;;;;;;3.07;1.80;;;22.20;58.00;;;;;;6248240;23;20405;-91
2024/01/07 06:14:36;;;;;;;1.50;1.40;;;22.20;57.90;;;;;;6248228;23;20397;-91
2024/01/07 06:17:03;;;;;;;2.07;1.87;;;22.20;58.00;;;;;;6248161;23;20774;-91
2024/01/07 06:19:32;;;;;;;1.90;1.70;;;22.20;57.90;;;;;;6248320;23;20785;-91
2024/01/07 06:21:59;;;;;;;2.20;2.00;;;22.20;57.90;;;;;;6247310;23;20527;-91
2024/01/07 06:24:26;;;;;;;2.07;1.77;;;22.20;57.90;;;;;;6247281;23;20557;-91
2024/01/07 06:26:54;;;;;;;1.67;1.57;;;22.20;58.00;;;;;;6248713;23;20806;-91
2024/01/07 06:29:21;;;;;;;2.00;1.77;;;22.20;58.00;;;;;;6248393;23;21085;-91
2024/01/07 06:31:48;;;;;;;2.23;2.03;;;22.20;57.90;;;;;;6247477;23;20496;-91
2024/01/07 06:34:15;;;;;;;1.67;1.57;;;22.20;57.90;;;;;;6247569;23;20479;-91
2024/01/07 06:36:42;;;;;;;2.50;2.30;;;22.20;57.90;;;;;;6247722;23;20445;-90
2024/01/07 06:39:09;;;;;;;1.70;1.60;;;22.20;57.90;;;;;;6247926;23;20930;-91
2024/01/07 06:41:36;;;;;;;1.63;1.30;;;22.20;57.90;;;;;;6248851;23;20441;-91
2024/01/07 06:44:05;;;;;;;2.17;1.97;;;22.20;57.90;;;;;;6247726;23;20922;-91
2024/01/07 06:46:34;;;;;;;2.27;2.00;;;22.20;57.90;;;;;;6247815;23;20963;-90
2024/01/07 06:49:00;;;;;;;1.60;1.50;;;22.20;57.80;;;;;;6247570;23;20401;-91
2024/01/07 06:51:27;;;;;;;1.70;1.60;;;22.20;57.80;;;;;;6247863;23;20411;-91
2024/01/07 06:53:54;;;;;;;1.67;1.57;;;22.20;57.90;;;;;;6247670;23;20484;-91
2024/01/07 06:56:21;;;;;;;2.10;1.73;;;22.20;57.70;;;;;;6247656;23;20722;-91
2024/01/07 06:58:49;;;;;;;1.77;1.67;;;22.20;57.80;;;;;;6248131;23;20408;-91
2024/01/07 07:01:21;;;;;;;1.70;1.60;;;22.20;57.80;;;;;;6247760;23;20949;-90
2024/01/07 07:03:52;;;;;;;1.63;1.53;;;22.20;57.70;;;;;;6248126;23;20436;-90
2024/01/07 07:06:19;;;;;;;2.20;1.83;;;22.30;57.80;;;;;;6247711;23;20891;-89
2024/01/07 07:08:46;;;;;;;1.80;1.60;;;22.30;57.80;;;;;;6248271;23;20398;-90
2024/01/07 07:11:13;;;;;;;2.10;1.90;;;22.20;57.60;;;;;;6249783;23;20488;-91
2024/01/07 07:13:40;;;;;;;1.60;1.50;;;22.20;57.60;;;;;;6257550;23;20408;-90
2024/01/07 07:16:08;;;;;;;1.63;1.47;;;22.20;57.60;;;;;;6248067;23;20759;-90
2024/01/07 07:18:36;;;;;;;2.60;1.73;;;22.30;57.80;;;;;;6248044;23;20880;-90
2024/01/07 07:21:03;;;;;;;1.70;1.60;;;22.30;57.60;;;;;;6247058;23;20515;-90
2024/01/07 07:23:30;;;;;;;1.70;1.60;;;22.20;57.70;;;;;;6247744;23;20884;-90
2024/01/07 07:25:57;;;;;;;1.80;1.40;;;22.30;57.80;;;;;;6249169;23;20420;-90
2024/01/07 07:28:24;;;;;;;1.83;1.70;;;22.30;57.70;;;;;;6247630;23;20492;-90
2024/01/07 07:30:50;;;;;;;1.97;1.87;;;22.30;57.60;;;;;;6248296;23;20496;-90
2024/01/07 07:33:18;;;;;;;1.80;1.60;;;22.40;57.70;;;;;;6247085;23;20756;-90
2024/01/07 07:35:46;;;;;;;1.90;1.70;;;22.30;57.60;;;;;;6247936;23;20540;-90
2024/01/07 07:38:14;;;;;;;2.37;2.17;;;22.30;57.60;;;;;;6248030;23;20428;-90
2024/01/07 07:40:41;;;;;;;1.83;1.73;;;22.30;57.60;;;;;;6247721;23;20466;-90
2024/01/07 07:43:09;;;;;;;2.30;1.90;;;22.30;57.50;;;;;;6247334;23;20402;-90
2024/01/07 07:45:35;;;;;;;2.10;1.73;;;22.40;57.60;;;;;;6251546;23;20823;-90
2024/01/07 07:48:02;;;;;;;1.77;1.57;;;22.40;57.70;;;;;;6246899;23;20503;-90
2024/01/07 07:50:29;;;;;;;2.00;1.80;;;22.30;57.50;;;;;;6247849;23;20496;-90
2024/01/07 07:52:57;;;;;;;2.37;2.17;;;22.30;57.50;;;;;;6247695;23;20401;-90
2024/01/07 07:55:24;;;;;;;2.20;2.00;;;22.30;57.60;;;;;;6247291;23;20492;-91
2024/01/07 07:57:51;;;;;;;2.20;1.87;;;22.30;57.50;;;;;;6248813;23;20435;-90
2024/01/07 08:00:19;;;;;;;1.60;1.50;;;22.30;57.50;;;;;;6247151;23;20397;-90
2024/01/07 08:02:45;;;;;;;1.57;1.47;;;22.30;57.50;;;;;;6247373;23;20449;-91
2024/01/07 08:05:12;;;;;;;1.60;1.50;;;22.30;57.60;;;;;;6247240;23;20404;-89
2024/01/07 08:07:39;;;;;;;2.43;2.23;;;22.30;57.60;;;;;;6246807;23;20411;-90
2024/01/07 08:10:09;;;;;;;1.80;1.70;;;22.30;57.60;;;;;;6246848;23;20412;-90
2024/01/07 08:12:36;;;;;;;2.07;1.70;;;22.30;57.50;;;;;;6247133;23;20482;-90
2024/01/07 08:15:03;;;;;;;2.00;1.60;;;22.30;57.60;;;;;;6246828;23;20409;-90
2024/01/07 08:17:30;;;;;;;2.23;2.00;;;22.30;57.50;;;;;;6246547;23;20704;-90
2024/01/07 08:19:57;;;;;;;2.00;1.90;;;22.40;57.50;;;;;;6247013;23;20405;-90
2024/01/07 08:22:23;;;;;;;1.90;1.80;;;22.30;57.40;;;;;;6247027;23;20523;-90
2024/01/07 08:24:51;;;;;;;1.90;1.80;;;22.30;57.40;;;;;;6247246;23;20500;-90
2024/01/07 08:27:19;;;;;;;1.57;1.47;;;22.30;57.50;;;;;;6247270;23;20894;-90
2024/01/07 08:29:46;;;;;;;2.10;1.90;;;22.30;57.40;;;;;;6246332;23;20431;-90
2024/01/07 08:32:13;;;;;;;2.10;1.90;;;22.30;57.40;;;;;;6246410;23;20421;-91
2024/01/07 08:34:40;;;;;;;2.20;2.00;;;22.30;57.30;;;;;;6246909;23;20448;-90
2024/01/07 08:37:08;;;;;;;1.93;1.73;;;22.30;57.40;;;;;;6246962;23;20405;-90
2024/01/07 08:39:35;;;;;;;2.67;2.00;;;22.30;58.00;;;;;;6247250;23;20405;-91
2024/01/07 08:42:03;;;;;;;1.83;1.63;;;22.30;57.30;;;;;;6247443;23;20548;-94
2024/01/07 08:44:32;;;;;;;2.00;1.80;;;22.40;57.40;;;;;;6247001;23;20460;-91
2024/01/07 08:47:01;;;;;;;2.17;1.60;;;22.30;57.40;;;;;;6248266;23;20429;-92
2024/01/07 08:49:38;;;;;;;3.40;2.37;;;22.40;57.30;;;;;;6247563;23;20455;-93
2024/01/07 08:52:06;;;;;;;2.37;1.80;;;22.30;56.70;;;;;;6250806;22;20900;-90
2024/01/07 08:54:33;;;;;;;4.97;2.50;;;22.30;57.10;;;;;;6245748;23;20912;-90
2024/01/07 08:57:00;;;;;;;2.80;2.00;;;22.30;57.40;;;;;;6246283;23;20401;-91
2024/01/07 08:59:27;;;;;;;2.73;2.13;;;22.30;57.40;;;;;;6246011;23;20907;-91
2024/01/07 09:01:55;;;;;;;3.30;1.60;;;22.30;57.30;;;;;;6246298;23;20963;-91
2024/01/07 09:04:22;;;;;;;2.20;2.00;;;22.30;57.30;;;;;;6245814;23;20394;-91
2024/01/07 09:06:49;;;;;;;2.27;1.90;;;22.30;57.30;;;;;;6245648;23;20881;-91
2024/01/07 09:09:16;;;;;;;3.90;2.07;;;22.30;58.10;;;;;;6245790;23;20424;-90
2024/01/07 09:11:42;;;;;;;2.13;1.93;;;22.30;57.30;;;;;;6245345;23;20484;-91
2024/01/07 09:14:09;;;;;;;3.70;1.77;;;22.30;57.30;;;;;;6245316;23;20488;-92
2024/01/07 09:16:36;;;;;;;2.47;1.90;;;22.40;57.30;;;;;;6245279;23;20484;-90
2024/01/07 09:19:04;;;;;;;5.37;2.37;;;22.40;57.30;;;;;;6245997;23;20497;-90
2024/01/07 09:21:31;;;;;;;3.00;1.70;;;22.40;57.40;;;;;;6245728;23;20487;-91
2024/01/07 09:23:59;;;;;;;1.60;1.50;;;22.40;57.30;;;;;;6246727;23;20484;-92
2024/01/07 09:26:26;;;;;;;2.20;2.00;;;22.40;57.30;;;;;;6246688;23;20413;-90
2024/01/07 09:28:53;;;;;;;2.63;1.80;;;22.40;57.30;;;;;;6246737;23;20860;-91
2024/01/07 09:31:19;;;;;;;4.23;1.80;;;22.50;57.30;;;;;;6246434;23;20441;-92
2024/01/07 09:33:46;;;;;;;3.67;1.63;;;22.40;57.30;;;;;;6245921;23;20504;-90
2024/01/07 09:36:15;;;;;;;1.87;1.57;;;22.40;57.10;;;;;;6246147;23;20468;-89
2024/01/07 09:38:42;;;;;;;2.73;1.73;;;22.40;57.20;;;;;;6245972;23;20432;-91
2024/01/07 09:41:09;;;;;;;2.23;1.67;;;22.50;57.40;;;;;;6246401;23;20444;-90
2024/01/07 09:43:37;;;;;;;3.20;1.73;;;22.40;57.40;;;;;;6247420;23;20787;-89
2024/01/07 09:46:04;;;;;;;3.00;1.60;;;22.40;56.70;;;;;;6247907;23;20458;-88
2024/01/07 09:48:31;;;;;;;2.20;1.97;;;22.30;56.40;;;;;;6248899;23;20405;-94
2024/01/07 09:50:59;;;;;;;1.87;1.60;;;22.20;56.50;;;;;;6246485;23;20409;-92
2024/01/07 09:53:36;;;;;;;5.23;2.00;;;22.20;57.00;;;;;;6247459;23;20412;-93
2024/01/07 09:56:12;;;;;;;3.13;1.70;;;22.20;56.40;;;;;;6248771;23;20420;-93
2024/01/07 09:58:39;;;;;;;1.73;1.60;;;22.10;56.60;;;;;;6248419;23;20443;-93
2024/01/07 10:01:07;;;;;;;2.60;2.13;;;22.10;56.70;;;;;;6248297;23;20496;-92
2024/01/07 10:03:37;;;;;;;2.17;1.97;;;22.10;56.60;;;;;;6248040;23;20448;-94
2024/01/07 10:06:07;;;;;;;4.33;2.30;;;22.00;56.50;;;;;;6248618;23;20397;-92
2024/01/07 10:08:35;;;;;;;2.37;2.03;;;22.00;56.70;;;;;;6248973;23;20405;-92
2024/01/07 10:11:04;;;;;;;2.27;2.07;;;22.00;56.70;;;;;;6248489;23;20580;-93
2024/01/07 10:13:32;;;;;;;1.83;1.50;;;22.00;56.60;;;;;;6248831;23;20766;-93
2024/01/07 10:15:59;;;;;;;3.07;2.43;;;22.00;56.80;;;;;;6248439;23;20747;-94
2024/01/07 10:18:47;;;;;;;2.70;2.20;;;22.00;56.80;;;;;;6248530;23;20405;-93
2024/01/07 10:28:14;;;;;;;5.17;2.10;;;22.00;57.80;;;;;;6250030;23;20423;-95
2024/01/07 10:30:52;;;;;;;2.40;2.00;;;22.10;58.00;;;;;;6249521;23;20494;-93
2024/01/07 10:34:16;;;;;;;6.53;1.80;;;22.20;57.30;;;;;;6252334;23;20492;-93
2024/01/07 10:47:18;;;;;;;2.70;1.90;;;22.20;57.60;;;;;;6186553;23;20380;-93
2024/01/07 10:59:27;;;;;;;1.70;1.60;;;22.30;57.60;;;;;;6132931;23;20360;-92
2024/01/07 11:05:03;;;;;;;2.67;1.77;;;22.30;57.60;;;;;;6197294;23;20386;-93
2024/01/07 11:07:52;;;;;;;2.40;1.93;;;22.30;57.50;;;;;;6249452;23;20889;-93
2024/01/07 11:10:35;;;;;;;1.70;1.60;;;22.20;57.50;;;;;;6249364;23;20408;-93
2024/01/07 11:20:01;;;;;;;3.00;1.37;;;22.40;57.50;;;;;;6185990;23;20918;-92
2024/01/07 11:22:39;;;;;;;3.80;1.67;;;22.30;57.60;;;;;;6185764;23;20496;-92
2024/01/07 11:25:30;;;;;;;2.53;1.93;;;22.20;57.50;;;;;;6186154;23;20922;-92
2024/01/07 11:28:03;;;;;;;1.90;1.60;;;22.40;57.50;;;;;;6185801;23;20832;-92
2024/01/07 11:31:03;;;;;;;2.07;1.70;;;22.30;57.40;;;;;;6185623;23;20410;-92
2024/01/07 11:37:02;;;;;;;1.97;1.70;;;22.40;57.40;;;;;;6249744;23;20386;-91
2024/01/07 11:49:29;;;;;;;4.50;1.60;;;22.40;57.40;;;;;;6248394;23;20407;-91
2024/01/07 11:59:19;;;;;;;2.70;1.67;;;22.40;57.40;;;;;;6184379;23;20376;-91
2024/01/07 12:08:23;;;;;;;1.80;1.57;;;22.40;57.30;;;;;;6235440;23;20433;-91
2024/01/07 12:10:50;;;;;;;2.13;1.93;;;22.30;57.20;;;;;;6248201;23;20417;-87
2024/01/07 12:13:18;;;;;;;1.80;1.50;;;22.40;57.20;;;;;;6248922;23;20873;-90
2024/01/07 12:15:58;;;;;;;1.70;1.57;;;22.40;57.20;;;;;;6247902;23;20496;-93
2024/01/07 12:18:31;;;;;;;2.80;1.87;;;22.30;57.30;;;;;;6252908;23;20403;-93
2024/01/07 12:21:03;;;;;;;3.03;2.73;;;22.40;55.40;;;;;;6249340;23;20405;-95
2024/01/07 12:23:36;;;;;;;3.23;2.70;;;22.20;51.20;;;;;;6244648;22;20472;-93
2024/01/07 12:26:37;;;;;;;2.40;2.20;;;21.90;52.00;;;;;;6250512;22;20451;-93
2024/01/07 12:29:06;;;;;;;2.00;1.90;;;21.90;54.90;;;;;;6247704;23;20435;-92
2024/01/07 12:31:41;;;;;;;2.20;2.00;;;22.00;55.80;;;;;;6246806;23;20436;-93
2024/01/07 12:34:09;;;;;;;3.17;1.90;;;21.80;53.70;;;;;;6248161;23;20404;-92
2024/01/07 12:36:40;;;;;;;3.57;1.80;;;21.80;54.20;;;;;;6247221;23;20409;-93
2024/01/07 12:39:10;;;;;;;2.40;2.20;;;22.00;55.20;;;;;;6247792;23;20488;-91
2024/01/07 12:41:45;;;;;;;3.20;1.80;;;22.00;55.60;;;;;;6247618;23;20740;-93
2024/01/07 12:44:12;;;;;;;2.33;1.77;;;22.20;55.60;;;;;;6247280;23;20413;-91
2024/01/07 12:46:40;;;;;;;1.97;1.80;;;22.10;55.40;;;;;;6246762;23;20444;-92
2024/01/07 12:49:07;;;;;;;1.93;1.63;;;22.10;55.60;;;;;;6247694;23;20435;-92
2024/01/07 12:51:43;;;;;;;4.00;2.33;;;22.20;55.60;;;;;;6247343;23;20405;-92
2024/01/07 12:54:11;;;;;;;2.10;1.90;;;22.10;55.50;;;;;;6246847;23;20395;-93
2024/01/07 12:56:38;;;;;;;2.27;1.77;;;22.20;55.60;;;;;;6247399;23;20405;-92
2024/01/07 12:59:05;;;;;;;3.67;1.77;;;22.30;55.60;;;;;;6246953;23;20409;-92
2024/01/07 13:01:32;;;;;;;3.33;2.03;;;22.30;55.00;;;;;;6247131;23;20783;-92
2024/01/07 13:04:00;;;;;;;2.67;1.63;;;22.40;55.30;;;;;;6247494;23;20449;-93
2024/01/07 13:06:27;;;;;;;7.20;2.50;;;22.30;54.40;;;;;;6246534;23;20891;-92
2024/01/07 13:09:03;;;;;;;3.53;1.83;;;22.30;55.50;;;;;;6247479;23;20404;-92
2024/01/07 13:11:30;;;;;;;4.00;1.80;;;22.30;55.50;;;;;;6246516;23;20405;-92
2024/01/07 13:13:59;;;;;;;2.27;2.00;;;22.40;55.60;;;;;;6247320;23;20393;-92
2024/01/07 13:16:27;;;;;;;1.87;1.63;;;22.30;55.60;;;;;;6247001;23;20872;-92
2024/01/07 13:18:54;;;;;;;2.03;1.70;;;22.30;55.50;;;;;;6246692;23;20405;-93
2024/01/07 13:21:23;;;;;;;2.70;1.93;;;22.30;55.50;;;;;;6246848;23;20938;-92
2024/01/07 13:23:50;;;;;;;2.10;1.60;;;22.30;55.50;;;;;;6247367;23;20502;-92
2024/01/07 13:26:17;;;;;;;2.30;1.90;;;22.30;55.50;;;;;;6246466;23;20445;-93
2024/01/07 13:28:44;;;;;;;1.73;1.63;;;22.30;55.60;;;;;;6249069;23;20405;-92
2024/01/07 13:31:13;;;;;;;2.43;2.10;;;22.40;55.50;;;;;;6247789;23;20424;-91
2024/01/07 13:33:40;;;;;;;2.07;1.87;;;22.40;55.60;;;;;;6248444;23;20448;-92
2024/01/07 13:36:09;;;;;;;3.93;2.07;;;22.40;55.70;;;;;;6248085;23;20492;-91
2024/01/07 13:38:38;;;;;;;1.73;1.63;;;22.40;55.50;;;;;;6250665;23;20397;-91
2024/01/07 13:41:05;;;;;;;2.80;1.80;;;22.40;55.50;;;;;;6249816;23;20409;-91
2024/01/07 13:43:37;;;;;;;3.07;2.00;;;22.40;55.80;;;;;;6247641;23;20468;-92
2024/01/07 13:46:04;;;;;;;2.13;1.70;;;22.40;55.60;;;;;;6248647;23;20467;-92
2024/01/07 13:48:31;;;;;;;2.47;2.10;;;22.40;55.80;;;;;;6248181;23;20467;-91
2024/01/07 13:50:58;;;;;;;2.77;1.67;;;22.40;55.70;;;;;;6247721;23;20479;-93
2024/01/07 13:53:25;;;;;;;4.33;1.80;;;22.40;55.80;;;;;;6248675;23;20516;-91
2024/01/07 13:56:14;;;;;;;3.13;1.77;;;22.40;55.90;;;;;;6248283;23;20428;-93
2024/01/07 14:02:06;;;;;;;4.80;1.40;;;22.10;54.10;;;;;;6241547;23;20543;-96
2024/01/07 14:04:35;;;;;;;3.70;1.80;;;22.10;54.50;;;;;;6251704;23;20761;-93